createdAt,value
2018-05-13T00:03:53.621Z,95082
2018-05-13T00:09:21.753Z,95082
2018-05-13T00:14:49.903Z,95078
2018-05-13T00:20:18.815Z,95064
2018-05-13T00:25:46.962Z,95067
2018-05-13T00:31:16.045Z,95061
2018-05-13T00:36:44.187Z,95044
2018-05-13T00:42:12.406Z,95041
2018-05-13T00:47:40.586Z,95046
2018-05-13T00:53:08.772Z,95040
2018-05-13T00:58:36.994Z,95031
2018-05-13T01:04:05.900Z,95031
2018-05-13T01:09:34.067Z,95027
2018-05-13T01:15:02.254Z,95023
2018-05-13T01:20:30.404Z,95014
2018-05-13T01:25:59.320Z,95020
2018-05-13T01:31:27.479Z,95002
2018-05-13T01:36:55.638Z,94998
2018-05-13T01:42:23.793Z,94994
2018-05-13T01:47:52.695Z,94998
2018-05-13T01:53:20.844Z,94986
2018-05-13T01:58:48.984Z,94998
2018-05-13T02:04:17.133Z,94991
2018-05-13T02:09:45.295Z,94998
2018-05-13T02:15:14.207Z,94977
2018-05-13T02:20:42.388Z,94979
2018-05-13T02:26:10.631Z,94985
2018-05-13T02:31:38.773Z,94967
2018-05-13T02:37:06.968Z,94984
2018-05-13T02:42:35.156Z,94977
2018-05-13T02:48:03.317Z,94978
2018-05-13T02:53:31.886Z,94975
2018-05-13T02:59:00.024Z,94973
2018-05-13T03:04:28.947Z,94978
2018-05-13T03:09:57.867Z,94981
2018-05-13T03:15:26.008Z,94970
2018-05-13T03:20:54.945Z,94973
2018-05-13T03:26:23.847Z,94979
2018-05-13T03:31:52.003Z,94989
2018-05-13T03:37:20.922Z,94991
2018-05-13T03:42:49.070Z,94989
2018-05-13T03:48:17.994Z,94973
2018-05-13T03:53:46.161Z,94972
2018-05-13T03:59:14.309Z,94974
2018-05-13T04:04:42.451Z,94986
2018-05-13T04:16:24.381Z,95010
2018-05-13T04:21:53.301Z,95004
2018-05-13T04:27:22.210Z,95018
2018-05-13T04:32:50.354Z,95011
2018-05-13T04:38:19.256Z,95002
2018-05-13T04:43:47.413Z,95014
2018-05-13T04:49:15.544Z,95021
2018-05-13T04:54:44.453Z,95022
2018-05-13T05:00:12.611Z,95027
2018-05-13T05:05:41.525Z,95025
2018-05-13T05:11:09.679Z,95028
2018-05-13T05:16:37.849Z,95028
2018-05-13T05:22:06.036Z,95029
2018-05-13T05:27:34.205Z,95033
2018-05-13T05:33:03.141Z,95027
2018-05-13T05:38:32.067Z,95019
2018-05-13T05:44:00.208Z,95025
2018-05-13T05:49:29.120Z,95027
2018-05-13T05:54:57.257Z,95021
2018-05-13T06:00:26.163Z,95022
2018-05-13T06:05:54.316Z,95029
2018-05-13T06:11:23.237Z,95026
2018-05-13T06:16:51.375Z,95027
2018-05-13T06:22:20.288Z,95027
2018-05-13T06:27:48.442Z,95029
2018-05-13T06:33:17.358Z,95026
2018-05-13T06:38:45.505Z,95024
2018-05-13T06:44:13.671Z,95017
2018-05-13T06:49:41.808Z,95019
2018-05-13T06:55:09.963Z,95015
2018-05-13T07:00:38.174Z,95019
2018-05-13T07:06:07.168Z,95010
2018-05-13T07:11:35.305Z,95013
2018-05-13T07:17:03.444Z,95000
2018-05-13T07:22:32.367Z,95012
2018-05-13T07:28:00.552Z,95006
2018-05-13T07:33:28.745Z,94998
2018-05-13T07:38:56.871Z,94991
2018-05-13T07:44:25.051Z,94984
2018-05-13T07:49:53.155Z,94994
2018-05-13T07:55:21.509Z,94985
2018-05-13T08:00:51.372Z,94985
2018-05-13T08:06:20.283Z,94990
2018-05-13T08:11:48.428Z,94991
2018-05-13T08:17:18.289Z,94986
2018-05-13T08:22:47.205Z,94978
2018-05-13T08:28:15.336Z,94984
2018-05-13T08:33:43.475Z,94981
2018-05-13T08:39:12.428Z,94971
2018-05-13T08:44:40.571Z,94965
2018-05-13T08:50:08.753Z,94965
2018-05-13T08:55:37.713Z,94956
2018-05-13T09:01:06.195Z,94954
2018-05-13T09:06:35.384Z,94945
2018-05-13T09:12:03.584Z,94946
2018-05-13T09:17:31.831Z,94940
2018-05-13T09:23:03.843Z,94932
2018-05-13T09:28:32.071Z,94930
2018-05-13T09:34:00.245Z,94928
2018-05-13T09:39:28.439Z,94924
2018-05-13T09:44:56.574Z,94917
2018-05-13T09:50:25.492Z,94906
2018-05-13T09:55:53.633Z,94906
2018-05-13T10:01:22.540Z,94904
2018-05-13T10:06:50.699Z,94901
2018-05-13T10:12:19.595Z,94900
2018-05-13T10:17:47.749Z,94899
2018-05-13T10:23:16.662Z,94893
2018-05-13T10:28:44.804Z,94890
2018-05-13T10:34:13.717Z,94884
2018-05-13T10:39:41.860Z,94883
2018-05-13T10:45:10.765Z,94880
2018-05-13T10:50:38.968Z,94876
2018-05-13T10:56:07.146Z,94875
2018-05-13T11:01:36.130Z,94866
2018-05-13T11:07:04.297Z,94864
2018-05-13T11:12:33.254Z,94850
2018-05-13T11:18:02.165Z,94858
2018-05-13T11:23:31.157Z,94855
2018-05-13T11:28:59.309Z,94829
2018-05-13T11:34:27.456Z,94821
2018-05-13T11:39:55.670Z,94805
2018-05-13T11:45:23.804Z,94801
2018-05-13T11:50:52.988Z,94788
2018-05-13T11:56:21.414Z,94779
2018-05-13T12:01:49.539Z,94780
2018-05-13T12:07:17.820Z,94757
2018-05-13T12:12:46.826Z,94759
2018-05-13T12:18:16.004Z,94752
2018-05-13T12:23:44.963Z,94749
2018-05-13T12:29:13.151Z,94737
2018-05-13T12:34:41.361Z,94729
2018-05-13T12:40:09.549Z,94723
2018-05-13T12:45:37.748Z,94717
2018-05-13T12:51:05.936Z,94710
2018-05-13T12:56:34.106Z,94700
2018-05-13T13:02:02.288Z,94690
2018-05-13T13:07:30.457Z,94683
2018-05-13T13:12:59.526Z,94670
2018-05-13T13:18:27.691Z,94655
2018-05-13T13:23:55.842Z,94651
2018-05-13T13:29:24.056Z,94649
2018-05-13T13:34:52.288Z,94641
2018-05-13T13:40:20.441Z,94621
2018-05-13T13:45:49.345Z,94614
2018-05-13T13:51:17.490Z,94608
2018-05-13T13:56:46.405Z,94594
2018-05-13T14:02:14.567Z,94600
2018-05-13T14:07:42.797Z,94591
2018-05-13T14:13:11.057Z,94584
2018-05-13T14:18:39.395Z,94580
2018-05-13T14:24:07.594Z,94580
2018-05-13T14:29:35.802Z,94585
2018-05-13T14:35:04.923Z,94586
2018-05-13T14:40:33.138Z,94576
2018-05-13T14:46:01.286Z,94561
2018-05-13T14:51:29.466Z,94574
2018-05-13T14:56:58.385Z,94580
2018-05-13T15:02:26.546Z,94583
2018-05-13T15:07:54.695Z,94572
2018-05-13T15:13:22.897Z,94571
2018-05-13T15:18:51.047Z,94592
2018-05-13T15:24:21.132Z,94638
2018-05-13T15:29:49.309Z,94616
2018-05-13T15:35:17.480Z,94609
2018-05-13T15:40:48.373Z,94614
2018-05-13T15:46:17.302Z,94631
2018-05-13T15:51:45.501Z,94660
2018-05-13T15:57:13.667Z,94582
2018-05-13T16:02:41.842Z,94543
2018-05-13T16:08:10.021Z,94535
2018-05-13T16:13:38.244Z,94552
2018-05-13T16:19:06.514Z,94538
2018-05-13T16:24:35.464Z,94517
2018-05-13T16:30:04.482Z,94486
2018-05-13T16:35:32.664Z,94474
2018-05-13T16:41:01.810Z,94478
2018-05-13T16:46:29.974Z,94477
2018-05-13T16:51:58.111Z,94492
2018-05-13T16:57:27.038Z,94513
2018-05-13T17:02:55.953Z,94533
2018-05-13T17:08:24.104Z,94535
2018-05-13T17:13:53.013Z,94524
2018-05-13T17:19:21.174Z,94509
2018-05-13T17:24:49.321Z,94507
2018-05-13T17:30:18.422Z,94518
2018-05-13T17:35:47.430Z,94516
2018-05-13T17:41:15.666Z,94528
2018-05-13T17:46:44.498Z,94531
2018-05-13T17:52:13.590Z,94586
2018-05-13T17:57:41.884Z,94605
2018-05-13T18:03:10.024Z,94610
2018-05-13T18:08:38.970Z,94619
2018-05-13T18:14:07.144Z,94636
2018-05-13T18:19:35.312Z,94658
2018-05-13T18:25:04.270Z,94645
2018-05-13T18:30:32.468Z,94639
2018-05-13T18:36:00.627Z,94630
2018-05-13T18:41:28.833Z,94607
2018-05-13T18:46:57.044Z,94600
2018-05-13T18:52:31.639Z,94605
2018-05-13T18:57:59.881Z,94610
2018-05-13T19:03:28.228Z,94593
2018-05-13T19:08:57.171Z,94600
2018-05-13T19:14:25.381Z,94600
2018-05-13T19:19:54.408Z,94614
2018-05-13T19:25:24.010Z,94627
2018-05-13T19:30:52.181Z,94636
2018-05-13T19:36:20.319Z,94625
2018-05-13T19:41:48.521Z,94624
2018-05-13T19:47:17.435Z,94640
2018-05-13T19:52:45.610Z,94652
2018-05-13T19:58:13.798Z,94659
2018-05-13T20:03:42.826Z,94662
2018-05-13T20:09:11.059Z,94664
2018-05-13T20:14:39.293Z,94667
2018-05-13T20:20:08.285Z,94674
2018-05-13T20:25:36.577Z,94668
2018-05-13T20:31:04.728Z,94677
2018-05-13T20:36:32.907Z,94675
2018-05-13T20:42:01.108Z,94682
2018-05-13T20:47:29.271Z,94682
2018-05-13T20:52:57.401Z,94692
2018-05-13T20:58:25.568Z,94697
2018-05-13T21:03:54.500Z,94691
2018-05-13T21:09:23.418Z,94689
2018-05-13T21:14:51.735Z,94689
2018-05-13T21:20:19.947Z,94693
2018-05-13T21:25:48.106Z,94693
2018-05-13T21:31:17.962Z,94698
2018-05-13T21:36:46.892Z,94717
2018-05-13T21:42:15.867Z,94707
2018-05-13T21:47:44.109Z,94710
2018-05-13T21:53:12.240Z,94710
2018-05-13T21:58:40.915Z,94715
2018-05-13T22:04:09.103Z,94717
2018-05-13T22:09:37.272Z,94716
2018-05-13T22:15:06.214Z,94703
2018-05-13T22:20:34.406Z,94704
2018-05-13T22:26:02.572Z,94718
2018-05-13T22:31:30.721Z,94703
2018-05-13T22:36:58.901Z,94714
2018-05-13T22:42:27.058Z,94713
2018-05-13T22:47:55.193Z,94704
2018-05-13T22:53:23.340Z,94696
2018-05-13T22:58:52.272Z,94692
2018-05-13T23:04:21.187Z,94678
2018-05-13T23:09:49.365Z,94690
2018-05-13T23:15:17.523Z,94691
2018-05-13T23:20:45.660Z,94691
2018-05-13T23:26:14.592Z,94673
2018-05-13T23:31:42.750Z,94664
2018-05-13T23:37:10.940Z,94652
2018-05-13T23:42:39.156Z,94644
2018-05-13T23:48:08.101Z,94660
2018-05-13T23:53:37.050Z,94664
2018-05-13T23:59:06.096Z,94669
